sensor_id;sensor_type;location;lat;lon;timestamp;P1;durP1;ratioP1;P2;durP2;ratioP2
26822;SDS011;14852;51.910;8.878;2023-12-20T00:01:02;5.45;;;4.68;;
26822;SDS011;14852;51.910;8.878;2023-12-20T00:03:27;5.40;;;4.30;;
26822;SDS011;14852;51.910;8.878;2023-12-20T00:05:53;5.95;;;4.95;;
26822;SDS011;14852;51.910;8.878;2023-12-20T00:08:20;6.47;;;4.35;;
26822;SDS011;14852;51.910;8.878;2023-12-20T00:10:46;5.53;;;3.95;;
26822;SDS011;14852;51.910;8.878;2023-12-20T00:13:12;4.63;;;3.78;;
26822;SDS011;14852;51.910;8.878;2023-12-20T00:15:38;6.20;;;4.90;;
26822;SDS011;14852;51.910;8.878;2023-12-20T00:18:03;4.40;;;3.60;;
26822;SDS011;14852;51.910;8.878;2023-12-20T00:20:30;5.40;;;4.13;;
26822;SDS011;14852;51.910;8.878;2023-12-20T00:22:56;5.95;;;3.97;;
26822;SDS011;14852;51.910;8.878;2023-12-20T00:25:25;5.95;;;3.75;;
26822;SDS011;14852;51.910;8.878;2023-12-20T00:27:51;4.75;;;3.83;;
26822;SDS011;14852;51.910;8.878;2023-12-20T00:30:17;6.15;;;4.00;;
26822;SDS011;14852;51.910;8.878;2023-12-20T00:32:43;8.88;;;5.00;;
26822;SDS011;14852;51.910;8.878;2023-12-20T00:35:14;5.43;;;3.70;;
26822;SDS011;14852;51.910;8.878;2023-12-20T00:37:41;5.65;;;4.20;;
26822;SDS011;14852;51.910;8.878;2023-12-20T00:40:10;7.57;;;4.82;;
26822;SDS011;14852;51.910;8.878;2023-12-20T00:42:36;6.90;;;4.43;;
26822;SDS011;14852;51.910;8.878;2023-12-20T00:45:02;5.13;;;4.05;;
26822;SDS011;14852;51.910;8.878;2023-12-20T00:47:29;5.50;;;4.20;;
26822;SDS011;14852;51.910;8.878;2023-12-20T00:49:58;5.30;;;4.15;;
26822;SDS011;14852;51.910;8.878;2023-12-20T00:52:24;7.95;;;4.20;;
26822;SDS011;14852;51.910;8.878;2023-12-20T00:54:50;4.75;;;3.78;;
26822;SDS011;14852;51.910;8.878;2023-12-20T00:57:16;5.03;;;4.18;;
26822;SDS011;14852;51.910;8.878;2023-12-20T00:59:42;6.28;;;4.43;;
26822;SDS011;14852;51.910;8.878;2023-12-20T01:02:07;6.28;;;3.83;;
26822;SDS011;14852;51.910;8.878;2023-12-20T01:04:35;7.18;;;4.45;;
26822;SDS011;14852;51.910;8.878;2023-12-20T01:07:00;6.90;;;3.78;;
26822;SDS011;14852;51.910;8.878;2023-12-20T01:09:27;5.25;;;3.72;;
26822;SDS011;14852;51.910;8.878;2023-12-20T01:11:53;5.82;;;3.95;;
26822;SDS011;14852;51.910;8.878;2023-12-20T01:14:19;5.18;;;3.42;;
26822;SDS011;14852;51.910;8.878;2023-12-20T01:16:44;6.18;;;3.92;;
26822;SDS011;14852;51.910;8.878;2023-12-20T01:19:10;6.30;;;3.60;;
26822;SDS011;14852;51.910;8.878;2023-12-20T01:21:36;7.30;;;3.63;;
26822;SDS011;14852;51.910;8.878;2023-12-20T01:24:02;6.05;;;3.55;;
26822;SDS011;14852;51.910;8.878;2023-12-20T01:26:28;14.20;;;4.57;;
26822;SDS011;14852;51.910;8.878;2023-12-20T01:28:54;6.28;;;3.47;;
26822;SDS011;14852;51.910;8.878;2023-12-20T01:31:20;6.75;;;3.50;;
26822;SDS011;14852;51.910;8.878;2023-12-20T01:33:45;7.10;;;3.30;;
26822;SDS011;14852;51.910;8.878;2023-12-20T01:36:11;7.63;;;3.40;;
26822;SDS011;14852;51.910;8.878;2023-12-20T01:38:37;6.20;;;3.40;;
26822;SDS011;14852;51.910;8.878;2023-12-20T01:41:03;7.85;;;3.33;;
26822;SDS011;14852;51.910;8.878;2023-12-20T01:43:29;8.98;;;3.47;;
26822;SDS011;14852;51.910;8.878;2023-12-20T01:45:56;3.47;;;2.72;;
26822;SDS011;14852;51.910;8.878;2023-12-20T01:48:23;5.22;;;3.05;;
26822;SDS011;14852;51.910;8.878;2023-12-20T01:50:51;6.40;;;3.50;;
26822;SDS011;14852;51.910;8.878;2023-12-20T01:53:18;3.88;;;2.90;;
26822;SDS011;14852;51.910;8.878;2023-12-20T01:55:46;4.60;;;2.78;;
26822;SDS011;14852;51.910;8.878;2023-12-20T01:58:15;5.05;;;2.53;;
26822;SDS011;14852;51.910;8.878;2023-12-20T02:00:41;4.63;;;2.83;;
26822;SDS011;14852;51.910;8.878;2023-12-20T02:03:07;8.77;;;2.75;;
26822;SDS011;14852;51.910;8.878;2023-12-20T02:05:34;4.13;;;2.80;;
26822;SDS011;14852;51.910;8.878;2023-12-20T02:08:01;5.72;;;3.60;;
26822;SDS011;14852;51.910;8.878;2023-12-20T02:10:28;9.90;;;4.25;;
26822;SDS011;14852;51.910;8.878;2023-12-20T02:12:54;7.82;;;2.75;;
26822;SDS011;14852;51.910;8.878;2023-12-20T02:15:20;17.98;;;4.43;;
26822;SDS011;14852;51.910;8.878;2023-12-20T02:17:46;5.97;;;3.10;;
26822;SDS011;14852;51.910;8.878;2023-12-20T02:20:13;4.60;;;2.33;;
26822;SDS011;14852;51.910;8.878;2023-12-20T02:22:39;4.35;;;3.15;;
26822;SDS011;14852;51.910;8.878;2023-12-20T02:25:05;4.22;;;2.55;;
26822;SDS011;14852;51.910;8.878;2023-12-20T02:27:31;6.07;;;2.78;;
26822;SDS011;14852;51.910;8.878;2023-12-20T02:29:57;4.65;;;3.13;;
26822;SDS011;14852;51.910;8.878;2023-12-20T02:32:23;5.70;;;3.80;;
26822;SDS011;14852;51.910;8.878;2023-12-20T02:34:53;3.63;;;2.28;;
26822;SDS011;14852;51.910;8.878;2023-12-20T02:37:19;4.90;;;2.90;;
26822;SDS011;14852;51.910;8.878;2023-12-20T02:39:45;5.40;;;3.35;;
26822;SDS011;14852;51.910;8.878;2023-12-20T02:42:11;6.72;;;2.65;;
26822;SDS011;14852;51.910;8.878;2023-12-20T02:44:37;6.40;;;2.60;;
26822;SDS011;14852;51.910;8.878;2023-12-20T02:47:02;3.85;;;2.10;;
26822;SDS011;14852;51.910;8.878;2023-12-20T02:49:28;6.05;;;2.60;;
26822;SDS011;14852;51.910;8.878;2023-12-20T02:51:54;4.00;;;2.75;;
26822;SDS011;14852;51.910;8.878;2023-12-20T02:54:20;10.02;;;3.50;;
26822;SDS011;14852;51.910;8.878;2023-12-20T02:56:46;3.97;;;2.65;;
26822;SDS011;14852;51.910;8.878;2023-12-20T02:59:13;5.18;;;2.83;;
26822;SDS011;14852;51.910;8.878;2023-12-20T03:01:42;6.28;;;3.47;;
26822;SDS011;14852;51.910;8.878;2023-12-20T03:04:10;6.00;;;3.75;;
26822;SDS011;14852;51.910;8.878;2023-12-20T03:06:36;4.13;;;2.65;;
26822;SDS011;14852;51.910;8.878;2023-12-20T03:09:02;5.47;;;2.55;;
26822;SDS011;14852;51.910;8.878;2023-12-20T03:11:28;4.63;;;2.65;;
26822;SDS011;14852;51.910;8.878;2023-12-20T03:13:57;6.20;;;3.15;;
26822;SDS011;14852;51.910;8.878;2023-12-20T03:16:23;5.82;;;2.90;;
26822;SDS011;14852;51.910;8.878;2023-12-20T03:18:48;6.43;;;2.60;;
26822;SDS011;14852;51.910;8.878;2023-12-20T03:21:14;4.85;;;2.58;;
26822;SDS011;14852;51.910;8.878;2023-12-20T03:23:40;7.05;;;2.70;;
26822;SDS011;14852;51.910;8.878;2023-12-20T03:26:07;6.53;;;3.53;;
26822;SDS011;14852;51.910;8.878;2023-12-20T03:28:33;5.97;;;3.13;;
26822;SDS011;14852;51.910;8.878;2023-12-20T03:30:59;8.80;;;3.30;;
26822;SDS011;14852;51.910;8.878;2023-12-20T03:33:25;5.85;;;3.78;;
26822;SDS011;14852;51.910;8.878;2023-12-20T03:35:51;8.30;;;3.90;;
26822;SDS011;14852;51.910;8.878;2023-12-20T03:38:17;10.05;;;4.20;;
26822;SDS011;14852;51.910;8.878;2023-12-20T03:40:43;8.13;;;4.03;;
26822;SDS011;14852;51.910;8.878;2023-12-20T03:43:08;5.70;;;4.72;;
26822;SDS011;14852;51.910;8.878;2023-12-20T03:45:34;10.13;;;4.50;;
26822;SDS011;14852;51.910;8.878;2023-12-20T03:48:00;9.35;;;4.88;;
26822;SDS011;14852;51.910;8.878;2023-12-20T03:50:26;8.60;;;4.93;;
26822;SDS011;14852;51.910;8.878;2023-12-20T03:52:52;8.93;;;4.55;;
26822;SDS011;14852;51.910;8.878;2023-12-20T03:55:18;7.00;;;4.22;;
26822;SDS011;14852;51.910;8.878;2023-12-20T03:57:44;5.45;;;3.70;;
26822;SDS011;14852;51.910;8.878;2023-12-20T04:00:09;5.85;;;3.97;;
26822;SDS011;14852;51.910;8.878;2023-12-20T04:02:42;8.40;;;4.18;;
26822;SDS011;14852;51.910;8.878;2023-12-20T04:05:08;8.52;;;5.28;;
26822;SDS011;14852;51.910;8.878;2023-12-20T04:07:35;7.68;;;3.90;;
26822;SDS011;14852;51.910;8.878;2023-12-20T04:10:01;7.72;;;4.50;;
26822;SDS011;14852;51.910;8.878;2023-12-20T04:12:28;9.50;;;4.25;;
26822;SDS011;14852;51.910;8.878;2023-12-20T04:14:54;6.78;;;4.25;;
26822;SDS011;14852;51.910;8.878;2023-12-20T04:17:21;11.65;;;4.53;;
26822;SDS011;14852;51.910;8.878;2023-12-20T04:19:49;9.00;;;4.45;;
26822;SDS011;14852;51.910;8.878;2023-12-20T04:22:19;8.57;;;4.60;;
26822;SDS011;14852;51.910;8.878;2023-12-20T04:24:45;8.50;;;4.45;;
26822;SDS011;14852;51.910;8.878;2023-12-20T04:27:11;10.10;;;4.13;;
26822;SDS011;14852;51.910;8.878;2023-12-20T04:29:37;10.90;;;4.45;;
26822;SDS011;14852;51.910;8.878;2023-12-20T04:32:03;11.10;;;4.35;;
26822;SDS011;14852;51.910;8.878;2023-12-20T04:34:29;8.88;;;4.22;;
26822;SDS011;14852;51.910;8.878;2023-12-20T04:36:55;7.10;;;4.65;;
26822;SDS011;14852;51.910;8.878;2023-12-20T04:39:21;9.38;;;5.35;;
26822;SDS011;14852;51.910;8.878;2023-12-20T04:41:47;7.63;;;4.38;;
26822;SDS011;14852;51.910;8.878;2023-12-20T04:44:13;7.93;;;4.07;;
26822;SDS011;14852;51.910;8.878;2023-12-20T04:46:39;9.18;;;4.78;;
26822;SDS011;14852;51.910;8.878;2023-12-20T04:49:05;20.40;;;5.00;;
26822;SDS011;14852;51.910;8.878;2023-12-20T04:51:33;9.15;;;4.63;;
26822;SDS011;14852;51.910;8.878;2023-12-20T04:53:59;9.73;;;4.60;;
26822;SDS011;14852;51.910;8.878;2023-12-20T04:56:25;7.78;;;3.92;;
26822;SDS011;14852;51.910;8.878;2023-12-20T04:58:51;8.85;;;4.20;;
26822;SDS011;14852;51.910;8.878;2023-12-20T05:01:17;9.05;;;4.78;;
26822;SDS011;14852;51.910;8.878;2023-12-20T05:03:42;9.38;;;4.10;;
26822;SDS011;14852;51.910;8.878;2023-12-20T05:06:09;6.32;;;3.75;;
26822;SDS011;14852;51.910;8.878;2023-12-20T05:08:35;9.95;;;4.45;;
26822;SDS011;14852;51.910;8.878;2023-12-20T05:11:01;13.20;;;4.10;;
26822;SDS011;14852;51.910;8.878;2023-12-20T05:13:27;15.52;;;4.47;;
26822;SDS011;14852;51.910;8.878;2023-12-20T05:15:52;10.20;;;4.07;;
26822;SDS011;14852;51.910;8.878;2023-12-20T05:18:18;7.55;;;4.07;;
26822;SDS011;14852;51.910;8.878;2023-12-20T05:20:45;12.70;;;4.90;;
26822;SDS011;14852;51.910;8.878;2023-12-20T05:23:11;12.23;;;4.60;;
26822;SDS011;14852;51.910;8.878;2023-12-20T05:25:38;12.30;;;4.43;;
26822;SDS011;14852;51.910;8.878;2023-12-20T05:28:04;13.23;;;4.95;;
26822;SDS011;14852;51.910;8.878;2023-12-20T05:30:30;11.57;;;5.68;;
26822;SDS011;14852;51.910;8.878;2023-12-20T05:32:56;14.70;;;4.10;;
26822;SDS011;14852;51.910;8.878;2023-12-20T05:35:22;9.35;;;3.58;;
26822;SDS011;14852;51.910;8.878;2023-12-20T05:37:48;9.65;;;4.65;;
26822;SDS011;14852;51.910;8.878;2023-12-20T05:40:15;7.10;;;3.90;;
26822;SDS011;14852;51.910;8.878;2023-12-20T05:42:40;10.00;;;4.40;;
26822;SDS011;14852;51.910;8.878;2023-12-20T05:45:06;11.15;;;5.50;;
26822;SDS011;14852;51.910;8.878;2023-12-20T05:47:32;8.52;;;4.10;;
26822;SDS011;14852;51.910;8.878;2023-12-20T05:49:58;13.23;;;5.03;;
26822;SDS011;14852;51.910;8.878;2023-12-20T05:52:24;8.55;;;4.72;;
26822;SDS011;14852;51.910;8.878;2023-12-20T05:54:50;10.05;;;4.70;;
26822;SDS011;14852;51.910;8.878;2023-12-20T05:57:15;8.57;;;4.63;;
26822;SDS011;14852;51.910;8.878;2023-12-20T05:59:41;7.95;;;5.05;;
26822;SDS011;14852;51.910;8.878;2023-12-20T06:02:07;8.90;;;5.07;;
26822;SDS011;14852;51.910;8.878;2023-12-20T06:04:33;5.72;;;4.22;;
26822;SDS011;14852;51.910;8.878;2023-12-20T06:06:58;11.82;;;4.53;;
26822;SDS011;14852;51.910;8.878;2023-12-20T06:09:26;12.75;;;4.63;;
26822;SDS011;14852;51.910;8.878;2023-12-20T06:11:52;15.10;;;5.50;;
26822;SDS011;14852;51.910;8.878;2023-12-20T06:14:18;12.95;;;5.32;;
26822;SDS011;14852;51.910;8.878;2023-12-20T06:16:44;9.32;;;4.50;;
26822;SDS011;14852;51.910;8.878;2023-12-20T06:19:11;11.63;;;4.20;;
26822;SDS011;14852;51.910;8.878;2023-12-20T06:21:36;11.07;;;4.47;;
26822;SDS011;14852;51.910;8.878;2023-12-20T06:24:02;16.52;;;5.20;;
26822;SDS011;14852;51.910;8.878;2023-12-20T06:26:28;12.32;;;4.70;;
26822;SDS011;14852;51.910;8.878;2023-12-20T06:28:54;14.88;;;6.88;;
26822;SDS011;14852;51.910;8.878;2023-12-20T06:31:20;9.02;;;4.22;;
26822;SDS011;14852;51.910;8.878;2023-12-20T06:33:46;12.60;;;5.15;;
26822;SDS011;14852;51.910;8.878;2023-12-20T06:36:12;14.45;;;4.57;;
26822;SDS011;14852;51.910;8.878;2023-12-20T06:38:38;15.15;;;5.70;;
26822;SDS011;14852;51.910;8.878;2023-12-20T06:41:04;8.88;;;4.22;;
26822;SDS011;14852;51.910;8.878;2023-12-20T06:43:31;10.38;;;4.60;;
26822;SDS011;14852;51.910;8.878;2023-12-20T06:45:58;12.07;;;5.88;;
26822;SDS011;14852;51.910;8.878;2023-12-20T06:48:25;13.80;;;5.75;;
26822;SDS011;14852;51.910;8.878;2023-12-20T06:50:51;9.52;;;4.75;;
26822;SDS011;14852;51.910;8.878;2023-12-20T06:53:17;10.80;;;4.32;;
26822;SDS011;14852;51.910;8.878;2023-12-20T06:55:43;12.65;;;4.50;;
26822;SDS011;14852;51.910;8.878;2023-12-20T06:58:09;11.02;;;4.50;;
26822;SDS011;14852;51.910;8.878;2023-12-20T07:00:34;12.35;;;5.60;;
26822;SDS011;14852;51.910;8.878;2023-12-20T07:03:00;9.93;;;4.70;;
26822;SDS011;14852;51.910;8.878;2023-12-20T07:05:26;13.15;;;4.72;;
26822;SDS011;14852;51.910;8.878;2023-12-20T07:08:00;9.55;;;5.18;;
26822;SDS011;14852;51.910;8.878;2023-12-20T07:10:26;14.32;;;5.43;;
26822;SDS011;14852;51.910;8.878;2023-12-20T07:12:52;10.98;;;4.85;;
26822;SDS011;14852;51.910;8.878;2023-12-20T07:15:20;10.55;;;5.28;;
26822;SDS011;14852;51.910;8.878;2023-12-20T07:17:47;14.02;;;5.45;;
26822;SDS011;14852;51.910;8.878;2023-12-20T07:20:13;10.23;;;5.07;;
26822;SDS011;14852;51.910;8.878;2023-12-20T07:22:38;9.55;;;5.03;;
26822;SDS011;14852;51.910;8.878;2023-12-20T07:25:04;13.77;;;5.60;;
26822;SDS011;14852;51.910;8.878;2023-12-20T07:27:31;10.23;;;4.63;;
26822;SDS011;14852;51.910;8.878;2023-12-20T07:29:56;11.63;;;6.50;;
26822;SDS011;14852;51.910;8.878;2023-12-20T07:32:22;10.07;;;5.18;;
26822;SDS011;14852;51.910;8.878;2023-12-20T07:34:48;13.05;;;4.90;;
26822;SDS011;14852;51.910;8.878;2023-12-20T07:37:14;13.18;;;6.45;;
26822;SDS011;14852;51.910;8.878;2023-12-20T07:39:40;9.98;;;6.00;;
26822;SDS011;14852;51.910;8.878;2023-12-20T07:42:06;12.60;;;5.22;;
26822;SDS011;14852;51.910;8.878;2023-12-20T07:44:33;14.82;;;5.72;;
26822;SDS011;14852;51.910;8.878;2023-12-20T07:47:01;14.25;;;6.55;;
26822;SDS011;14852;51.910;8.878;2023-12-20T07:49:27;13.68;;;6.32;;
26822;SDS011;14852;51.910;8.878;2023-12-20T07:51:53;14.82;;;5.90;;
26822;SDS011;14852;51.910;8.878;2023-12-20T07:54:18;11.32;;;5.65;;
26822;SDS011;14852;51.910;8.878;2023-12-20T07:56:45;17.25;;;6.43;;
26822;SDS011;14852;51.910;8.878;2023-12-20T07:59:11;14.60;;;7.43;;
26822;SDS011;14852;51.910;8.878;2023-12-20T08:01:37;12.30;;;6.20;;
26822;SDS011;14852;51.910;8.878;2023-12-20T08:04:03;12.32;;;7.78;;
26822;SDS011;14852;51.910;8.878;2023-12-20T08:06:29;18.25;;;6.97;;
26822;SDS011;14852;51.910;8.878;2023-12-20T08:08:55;13.02;;;6.70;;
26822;SDS011;14852;51.910;8.878;2023-12-20T08:11:20;21.40;;;8.05;;
26822;SDS011;14852;51.910;8.878;2023-12-20T08:13:46;18.95;;;7.45;;
26822;SDS011;14852;51.910;8.878;2023-12-20T08:16:12;13.88;;;8.30;;
26822;SDS011;14852;51.910;8.878;2023-12-20T08:18:38;13.52;;;7.90;;
26822;SDS011;14852;51.910;8.878;2023-12-20T08:21:04;13.25;;;8.27;;
26822;SDS011;14852;51.910;8.878;2023-12-20T08:23:33;17.98;;;7.53;;
26822;SDS011;14852;51.910;8.878;2023-12-20T08:26:03;17.05;;;7.53;;
26822;SDS011;14852;51.910;8.878;2023-12-20T08:28:33;15.20;;;7.85;;
26822;SDS011;14852;51.910;8.878;2023-12-20T08:31:00;14.98;;;7.22;;
26822;SDS011;14852;51.910;8.878;2023-12-20T08:33:26;9.40;;;6.10;;
26822;SDS011;14852;51.910;8.878;2023-12-20T08:35:51;11.10;;;6.78;;
26822;SDS011;14852;51.910;8.878;2023-12-20T08:38:17;12.95;;;6.18;;
26822;SDS011;14852;51.910;8.878;2023-12-20T08:40:43;11.70;;;6.50;;
26822;SDS011;14852;51.910;8.878;2023-12-20T08:43:10;14.00;;;7.45;;
26822;SDS011;14852;51.910;8.878;2023-12-20T08:45:35;10.55;;;6.88;;
26822;SDS011;14852;51.910;8.878;2023-12-20T08:48:04;16.80;;;7.55;;
26822;SDS011;14852;51.910;8.878;2023-12-20T08:50:30;15.07;;;8.00;;
26822;SDS011;14852;51.910;8.878;2023-12-20T08:52:56;16.63;;;8.00;;
26822;SDS011;14852;51.910;8.878;2023-12-20T08:55:21;15.65;;;8.25;;
26822;SDS011;14852;51.910;8.878;2023-12-20T08:57:47;15.88;;;7.80;;
26822;SDS011;14852;51.910;8.878;2023-12-20T09:00:14;15.40;;;7.55;;
26822;SDS011;14852;51.910;8.878;2023-12-20T09:02:40;15.88;;;8.90;;
26822;SDS011;14852;51.910;8.878;2023-12-20T09:05:06;20.10;;;8.95;;
26822;SDS011;14852;51.910;8.878;2023-12-20T09:07:32;15.90;;;8.90;;
26822;SDS011;14852;51.910;8.878;2023-12-20T09:09:58;14.93;;;7.80;;
26822;SDS011;14852;51.910;8.878;2023-12-20T09:12:24;13.48;;;9.20;;
26822;SDS011;14852;51.910;8.878;2023-12-20T09:14:50;18.65;;;8.18;;
26822;SDS011;14852;51.910;8.878;2023-12-20T09:17:17;11.63;;;7.97;;
26822;SDS011;14852;51.910;8.878;2023-12-20T09:19:44;14.05;;;8.00;;
26822;SDS011;14852;51.910;8.878;2023-12-20T09:22:10;17.67;;;8.65;;
26822;SDS011;14852;51.910;8.878;2023-12-20T09:24:37;9.80;;;7.22;;
26822;SDS011;14852;51.910;8.878;2023-12-20T09:27:03;27.92;;;9.00;;
26822;SDS011;14852;51.910;8.878;2023-12-20T09:29:30;22.02;;;8.80;;
26822;SDS011;14852;51.910;8.878;2023-12-20T09:31:56;14.70;;;8.02;;
26822;SDS011;14852;51.910;8.878;2023-12-20T09:34:23;16.70;;;8.02;;
26822;SDS011;14852;51.910;8.878;2023-12-20T09:36:50;15.43;;;9.10;;
26822;SDS011;14852;51.910;8.878;2023-12-20T09:39:17;16.95;;;9.65;;
26822;SDS011;14852;51.910;8.878;2023-12-20T09:41:46;11.30;;;7.95;;
26822;SDS011;14852;51.910;8.878;2023-12-20T09:44:27;9.43;;;7.30;;
26822;SDS011;14852;51.910;8.878;2023-12-20T09:46:53;17.75;;;9.52;;
26822;SDS011;14852;51.910;8.878;2023-12-20T09:49:21;13.68;;;7.40;;
26822;SDS011;14852;51.910;8.878;2023-12-20T09:51:48;18.02;;;7.93;;
26822;SDS011;14852;51.910;8.878;2023-12-20T09:54:19;22.80;;;9.15;;
26822;SDS011;14852;51.910;8.878;2023-12-20T09:56:46;16.70;;;8.02;;
26822;SDS011;14852;51.910;8.878;2023-12-20T09:59:13;11.13;;;7.38;;
26822;SDS011;14852;51.910;8.878;2023-12-20T10:01:40;8.75;;;6.50;;
26822;SDS011;14852;51.910;8.878;2023-12-20T10:04:07;14.20;;;8.88;;
26822;SDS011;14852;51.910;8.878;2023-12-20T10:06:43;12.40;;;7.50;;
26822;SDS011;14852;51.910;8.878;2023-12-20T10:09:10;12.97;;;7.13;;
26822;SDS011;14852;51.910;8.878;2023-12-20T10:11:37;16.63;;;6.97;;
26822;SDS011;14852;51.910;8.878;2023-12-20T10:14:03;14.75;;;8.18;;
26822;SDS011;14852;51.910;8.878;2023-12-20T10:16:31;17.08;;;7.43;;
26822;SDS011;14852;51.910;8.878;2023-12-20T10:18:58;13.68;;;7.10;;
26822;SDS011;14852;51.910;8.878;2023-12-20T10:21:26;12.25;;;7.13;;
26822;SDS011;14852;51.910;8.878;2023-12-20T10:23:52;9.38;;;6.60;;
26822;SDS011;14852;51.910;8.878;2023-12-20T10:26:22;10.48;;;7.80;;
26822;SDS011;14852;51.910;8.878;2023-12-20T10:28:56;14.18;;;8.38;;
26822;SDS011;14852;51.910;8.878;2023-12-20T10:31:32;18.52;;;7.93;;
26822;SDS011;14852;51.910;8.878;2023-12-20T10:34:00;20.63;;;7.82;;
26822;SDS011;14852;51.910;8.878;2023-12-20T10:36:31;14.10;;;8.15;;
26822;SDS011;14852;51.910;8.878;2023-12-20T10:38:58;15.73;;;7.32;;
26822;SDS011;14852;51.910;8.878;2023-12-20T10:41:29;15.32;;;7.88;;
26822;SDS011;14852;51.910;8.878;2023-12-20T10:44:03;16.30;;;8.18;;
26822;SDS011;14852;51.910;8.878;2023-12-20T10:46:33;14.13;;;7.90;;
26822;SDS011;14852;51.910;8.878;2023-12-20T10:48:59;11.95;;;6.88;;
26822;SDS011;14852;51.910;8.878;2023-12-20T10:51:27;15.52;;;7.88;;
26822;SDS011;14852;51.910;8.878;2023-12-20T10:53:55;15.70;;;7.97;;
26822;SDS011;14852;51.910;8.878;2023-12-20T10:56:21;13.35;;;8.52;;
26822;SDS011;14852;51.910;8.878;2023-12-20T10:58:51;16.45;;;8.02;;
26822;SDS011;14852;51.910;8.878;2023-12-20T11:01:17;14.18;;;6.68;;
26822;SDS011;14852;51.910;8.878;2023-12-20T11:03:48;9.63;;;7.70;;
26822;SDS011;14852;51.910;8.878;2023-12-20T11:09:54;7.82;;;6.50;;
26822;SDS011;14852;51.910;8.878;2023-12-20T11:12:25;15.43;;;6.47;;
26822;SDS011;14852;51.910;8.878;2023-12-20T11:15:02;12.85;;;7.10;;
26822;SDS011;14852;51.910;8.878;2023-12-20T11:17:29;12.55;;;7.13;;
26822;SDS011;14852;51.910;8.878;2023-12-20T11:22:22;10.32;;;6.70;;
26822;SDS011;14852;51.910;8.878;2023-12-20T11:24:51;11.88;;;6.82;;
26822;SDS011;14852;51.910;8.878;2023-12-20T11:27:21;22.80;;;8.45;;
26822;SDS011;14852;51.910;8.878;2023-12-20T11:29:57;9.40;;;5.65;;
26822;SDS011;14852;51.910;8.878;2023-12-20T11:34:50;17.70;;;7.00;;
26822;SDS011;14852;51.910;8.878;2023-12-20T11:37:19;12.23;;;6.65;;
26822;SDS011;14852;51.910;8.878;2023-12-20T11:39:45;13.73;;;5.53;;
26822;SDS011;14852;51.910;8.878;2023-12-20T11:42:20;10.02;;;5.65;;
26822;SDS011;14852;51.910;8.878;2023-12-20T11:44:46;11.82;;;5.38;;
26822;SDS011;14852;51.910;8.878;2023-12-20T11:47:12;12.40;;;4.97;;
26822;SDS011;14852;51.910;8.878;2023-12-20T11:49:39;9.80;;;5.15;;
26822;SDS011;14852;51.910;8.878;2023-12-20T11:52:05;8.68;;;4.50;;
26822;SDS011;14852;51.910;8.878;2023-12-20T11:54:31;9.40;;;5.65;;
26822;SDS011;14852;51.910;8.878;2023-12-20T11:56:57;7.97;;;4.40;;
26822;SDS011;14852;51.910;8.878;2023-12-20T11:59:23;6.85;;;4.60;;
26822;SDS011;14852;51.910;8.878;2023-12-20T12:01:49;8.85;;;5.43;;
26822;SDS011;14852;51.910;8.878;2023-12-20T12:04:16;13.55;;;4.65;;
26822;SDS011;14852;51.910;8.878;2023-12-20T12:06:43;8.65;;;4.70;;
26822;SDS011;14852;51.910;8.878;2023-12-20T12:09:10;7.70;;;3.95;;
26822;SDS011;14852;51.910;8.878;2023-12-20T12:11:36;10.80;;;5.28;;
26822;SDS011;14852;51.910;8.878;2023-12-20T12:14:01;9.52;;;3.95;;
26822;SDS011;14852;51.910;8.878;2023-12-20T12:16:28;7.07;;;4.07;;
26822;SDS011;14852;51.910;8.878;2023-12-20T12:18:55;7.10;;;3.25;;
26822;SDS011;14852;51.910;8.878;2023-12-20T12:21:22;10.02;;;3.50;;
26822;SDS011;14852;51.910;8.878;2023-12-20T12:23:48;8.70;;;4.07;;
26822;SDS011;14852;51.910;8.878;2023-12-20T12:26:14;7.55;;;3.38;;
26822;SDS011;14852;51.910;8.878;2023-12-20T12:28:40;7.88;;;3.58;;
26822;SDS011;14852;51.910;8.878;2023-12-20T12:31:06;5.38;;;3.08;;
26822;SDS011;14852;51.910;8.878;2023-12-20T12:33:33;7.63;;;3.53;;
26822;SDS011;14852;51.910;8.878;2023-12-20T12:36:00;5.22;;;2.97;;
26822;SDS011;14852;51.910;8.878;2023-12-20T12:38:26;7.88;;;3.65;;
26822;SDS011;14852;51.910;8.878;2023-12-20T12:40:54;6.72;;;3.22;;
26822;SDS011;14852;51.910;8.878;2023-12-20T12:43:20;8.63;;;3.70;;
26822;SDS011;14852;51.910;8.878;2023-12-20T12:45:48;6.57;;;2.97;;
26822;SDS011;14852;51.910;8.878;2023-12-20T12:48:14;11.57;;;4.15;;
26822;SDS011;14852;51.910;8.878;2023-12-20T12:50:40;7.72;;;2.85;;
26822;SDS011;14852;51.910;8.878;2023-12-20T12:53:06;9.25;;;3.67;;
26822;SDS011;14852;51.910;8.878;2023-12-20T12:55:32;7.57;;;3.40;;
26822;SDS011;14852;51.910;8.878;2023-12-20T12:57:59;6.70;;;3.30;;
26822;SDS011;14852;51.910;8.878;2023-12-20T13:00:25;8.98;;;3.17;;
26822;SDS011;14852;51.910;8.878;2023-12-20T13:02:51;8.07;;;3.40;;
26822;SDS011;14852;51.910;8.878;2023-12-20T13:05:17;5.47;;;2.92;;
26822;SDS011;14852;51.910;8.878;2023-12-20T13:07:43;9.73;;;3.85;;
26822;SDS011;14852;51.910;8.878;2023-12-20T13:10:10;12.73;;;4.63;;
26822;SDS011;14852;51.910;8.878;2023-12-20T13:12:36;8.15;;;3.33;;
26822;SDS011;14852;51.910;8.878;2023-12-20T13:15:02;11.25;;;4.28;;
26822;SDS011;14852;51.910;8.878;2023-12-20T13:17:31;11.63;;;5.22;;
26822;SDS011;14852;51.910;8.878;2023-12-20T13:19:56;9.23;;;3.47;;
26822;SDS011;14852;51.910;8.878;2023-12-20T13:22:22;14.40;;;4.88;;
26822;SDS011;14852;51.910;8.878;2023-12-20T13:24:48;6.82;;;3.72;;
26822;SDS011;14852;51.910;8.878;2023-12-20T13:27:14;9.15;;;4.32;;
26822;SDS011;14852;51.910;8.878;2023-12-20T13:29:40;11.73;;;4.45;;
26822;SDS011;14852;51.910;8.878;2023-12-20T13:32:06;12.95;;;5.05;;
26822;SDS011;14852;51.910;8.878;2023-12-20T13:34:32;11.90;;;5.00;;
26822;SDS011;14852;51.910;8.878;2023-12-20T13:36:57;8.88;;;3.30;;
26822;SDS011;14852;51.910;8.878;2023-12-20T13:39:23;8.60;;;3.75;;
26822;SDS011;14852;51.910;8.878;2023-12-20T13:41:49;6.90;;;3.67;;
26822;SDS011;14852;51.910;8.878;2023-12-20T13:44:15;12.48;;;4.70;;
26822;SDS011;14852;51.910;8.878;2023-12-20T13:46:41;14.43;;;4.43;;
26822;SDS011;14852;51.910;8.878;2023-12-20T13:49:06;10.73;;;4.75;;
26822;SDS011;14852;51.910;8.878;2023-12-20T13:51:32;9.88;;;4.07;;
26822;SDS011;14852;51.910;8.878;2023-12-20T13:53:58;11.57;;;3.55;;
26822;SDS011;14852;51.910;8.878;2023-12-20T13:56:24;7.43;;;3.78;;
26822;SDS011;14852;51.910;8.878;2023-12-20T13:58:51;6.60;;;2.47;;
26822;SDS011;14852;51.910;8.878;2023-12-20T14:01:16;8.10;;;2.47;;
26822;SDS011;14852;51.910;8.878;2023-12-20T14:03:42;8.38;;;2.92;;
26822;SDS011;14852;51.910;8.878;2023-12-20T14:06:08;3.70;;;2.63;;
26822;SDS011;14852;51.910;8.878;2023-12-20T14:08:34;6.35;;;2.00;;
26822;SDS011;14852;51.910;8.878;2023-12-20T14:11:01;7.78;;;2.40;;
26822;SDS011;14852;51.910;8.878;2023-12-20T14:13:27;4.85;;;2.17;;
26822;SDS011;14852;51.910;8.878;2023-12-20T14:15:52;4.95;;;1.67;;
26822;SDS011;14852;51.910;8.878;2023-12-20T14:18:19;4.43;;;1.60;;
26822;SDS011;14852;51.910;8.878;2023-12-20T14:20:47;7.55;;;2.20;;
26822;SDS011;14852;51.910;8.878;2023-12-20T14:23:13;2.15;;;1.50;;
26822;SDS011;14852;51.910;8.878;2023-12-20T14:25:42;5.07;;;1.95;;
26822;SDS011;14852;51.910;8.878;2023-12-20T14:28:07;5.50;;;1.73;;
26822;SDS011;14852;51.910;8.878;2023-12-20T14:30:35;2.38;;;1.27;;
26822;SDS011;14852;51.910;8.878;2023-12-20T14:33:02;2.33;;;1.45;;
26822;SDS011;14852;51.910;8.878;2023-12-20T14:35:27;2.58;;;1.55;;
26822;SDS011;14852;51.910;8.878;2023-12-20T14:37:53;4.63;;;1.50;;
26822;SDS011;14852;51.910;8.878;2023-12-20T14:40:19;3.58;;;1.77;;
26822;SDS011;14852;51.910;8.878;2023-12-20T14:42:45;4.32;;;1.90;;
26822;SDS011;14852;51.910;8.878;2023-12-20T14:45:11;1.73;;;1.42;;